sensor_id;sensor_type;location;lat;lon;timestamp;pressure;altitude;pressure_sealevel;temperature
34807;BMP280;18310;55.586;12.286;2024-02-28T00:02:46;101974.53;;;10.63
34807;BMP280;18310;55.586;12.286;2024-02-28T00:05:51;101983.50;;;10.63
34807;BMP280;18310;55.586;12.286;2024-02-28T00:09:02;101983.34;;;10.60
34807;BMP280;18310;55.586;12.286;2024-02-28T00:12:07;101982.50;;;10.51
34807;BMP280;18310;55.586;12.286;2024-02-28T00:15:10;101981.88;;;10.45
34807;BMP280;18310;55.586;12.286;2024-02-28T00:18:16;101981.22;;;10.40
34807;BMP280;18310;55.586;12.286;2024-02-28T00:21:20;101980.56;;;10.34
34807;BMP280;18310;55.586;12.286;2024-02-28T00:24:25;101991.28;;;10.30
34807;BMP280;18310;55.586;12.286;2024-02-28T00:27:28;101973.91;;;10.18
34807;BMP280;18310;55.586;12.286;2024-02-28T00:30:33;101994.78;;;10.22
34807;BMP280;18310;55.586;12.286;2024-02-28T00:33:38;101981.47;;;10.21
34807;BMP280;18310;55.586;12.286;2024-02-28T00:36:42;101974.72;;;10.18
34807;BMP280;18310;55.586;12.286;2024-02-28T00:39:56;101978.56;;;10.17
34807;BMP280;18310;55.586;12.286;2024-02-28T00:43:00;101983.69;;;10.19
34807;BMP280;18310;55.586;12.286;2024-02-28T00:46:03;101981.78;;;10.19
34807;BMP280;18310;55.586;12.286;2024-02-28T00:49:13;101990.44;;;10.21
34807;BMP280;18310;55.586;12.286;2024-02-28T00:52:16;101993.16;;;10.21
34807;BMP280;18310;55.586;12.286;2024-02-28T00:55:20;101985.31;;;10.20
34807;BMP280;18310;55.586;12.286;2024-02-28T00:58:24;101984.63;;;10.14
34807;BMP280;18310;55.586;12.286;2024-02-28T01:01:28;101980.34;;;10.13
34807;BMP280;18310;55.586;12.286;2024-02-28T01:04:34;101979.19;;;10.14
34807;BMP280;18310;55.586;12.286;2024-02-28T01:07:38;101977.63;;;10.13
34807;BMP280;18310;55.586;12.286;2024-02-28T01:10:42;101971.03;;;10.14
34807;BMP280;18310;55.586;12.286;2024-02-28T01:13:46;101978.56;;;10.17
34807;BMP280;18310;55.586;12.286;2024-02-28T01:18:33;101978.56;;;10.17
34807;BMP280;18310;55.586;12.286;2024-02-28T01:21:36;101972.31;;;10.17
34807;BMP280;18310;55.586;12.286;2024-02-28T01:24:43;101969.59;;;10.17
34807;BMP280;18310;55.586;12.286;2024-02-28T01:27:46;101971.19;;;10.18
34807;BMP280;18310;55.586;12.286;2024-02-28T01:30:50;101961.13;;;10.18
34807;BMP280;18310;55.586;12.286;2024-02-28T01:33:54;101959.84;;;10.16
34807;BMP280;18310;55.586;12.286;2024-02-28T01:36:59;101933.22;;;10.04
34807;BMP280;18310;55.586;12.286;2024-02-28T01:40:04;101952.34;;;10.13
34807;BMP280;18310;55.586;12.286;2024-02-28T01:43:08;101954.25;;;10.12
34807;BMP280;18310;55.586;12.286;2024-02-28T01:46:20;101944.63;;;10.15
34807;BMP280;18310;55.586;12.286;2024-02-28T01:49:27;101937.13;;;10.12
34807;BMP280;18310;55.586;12.286;2024-02-28T01:52:30;101935.81;;;10.09
34807;BMP280;18310;55.586;12.286;2024-02-28T01:55:34;101924.25;;;10.04
34807;BMP280;18310;55.586;12.286;2024-02-28T01:58:38;101925.88;;;10.05
34807;BMP280;18310;55.586;12.286;2024-02-28T02:01:42;101912.91;;;10.02
34807;BMP280;18310;55.586;12.286;2024-02-28T02:04:47;101923.13;;;9.96
34807;BMP280;18310;55.586;12.286;2024-02-28T02:07:51;101921.31;;;9.91
34807;BMP280;18310;55.586;12.286;2024-02-28T02:10:54;101926.31;;;9.89
34807;BMP280;18310;55.586;12.286;2024-02-28T02:13:58;101913.66;;;9.85
34807;BMP280;18310;55.586;12.286;2024-02-28T02:17:01;101921.50;;;9.86
34807;BMP280;18310;55.586;12.286;2024-02-28T02:20:10;101926.13;;;9.86
34807;BMP280;18310;55.586;12.286;2024-02-28T02:23:16;101924.00;;;9.83
34807;BMP280;18310;55.586;12.286;2024-02-28T02:26:19;101923.72;;;9.84
34807;BMP280;18310;55.586;12.286;2024-02-28T02:29:23;101922.59;;;9.85
34807;BMP280;18310;55.586;12.286;2024-02-28T02:32:26;101922.59;;;9.85
34807;BMP280;18310;55.586;12.286;2024-02-28T02:35:31;101909.31;;;9.84
34807;BMP280;18310;55.586;12.286;2024-02-28T02:38:35;101907.91;;;9.86
34807;BMP280;18310;55.586;12.286;2024-02-28T02:41:39;101903.25;;;9.87
34807;BMP280;18310;55.586;12.286;2024-02-28T02:44:42;101907.28;;;9.89
34807;BMP280;18310;55.586;12.286;2024-02-28T02:47:46;101914.31;;;9.90
34807;BMP280;18310;55.586;12.286;2024-02-28T02:50:49;101909.66;;;9.91
34807;BMP280;18310;55.586;12.286;2024-02-28T02:53:54;101909.84;;;9.95
34807;BMP280;18310;55.586;12.286;2024-02-28T02:56:57;101904.09;;;9.96
34807;BMP280;18310;55.586;12.286;2024-02-28T03:00:01;101901.97;;;9.93
34807;BMP280;18310;55.586;12.286;2024-02-28T03:03:05;101896.41;;;9.89
34807;BMP280;18310;55.586;12.286;2024-02-28T03:06:09;101894.50;;;9.90
34807;BMP280;18310;55.586;12.286;2024-02-28T03:09:14;101899.56;;;9.91
34807;BMP280;18310;55.586;12.286;2024-02-28T03:12:17;101904.41;;;9.95
34807;BMP280;18310;55.586;12.286;2024-02-28T03:15:21;101910.84;;;9.99
34807;BMP280;18310;55.586;12.286;2024-02-28T03:18:24;101912.56;;;10.03
34807;BMP280;18310;55.586;12.286;2024-02-28T03:21:27;101902.69;;;10.07
34807;BMP280;18310;55.586;12.286;2024-02-28T03:24:32;101914.38;;;10.08
34807;BMP280;18310;55.586;12.286;2024-02-28T03:27:37;101914.03;;;10.09
34807;BMP280;18310;55.586;12.286;2024-02-28T03:30:40;101909.06;;;10.03
34807;BMP280;18310;55.586;12.286;2024-02-28T03:33:44;101914.97;;;9.96
34807;BMP280;18310;55.586;12.286;2024-02-28T03:36:49;101911.44;;;9.96
34807;BMP280;18310;55.586;12.286;2024-02-28T03:39:54;101912.06;;;9.92
34807;BMP280;18310;55.586;12.286;2024-02-28T03:42:57;101912.53;;;9.86
34807;BMP280;18310;55.586;12.286;2024-02-28T03:46:01;101907.69;;;9.83
34807;BMP280;18310;55.586;12.286;2024-02-28T03:49:05;101911.06;;;9.80
34807;BMP280;18310;55.586;12.286;2024-02-28T03:52:08;101913.31;;;9.78
34807;BMP280;18310;55.586;12.286;2024-02-28T03:55:35;101914.41;;;9.77
34807;BMP280;18310;55.586;12.286;2024-02-28T03:58:40;101923.56;;;9.81
34807;BMP280;18310;55.586;12.286;2024-02-28T04:01:44;101922.91;;;9.84
34807;BMP280;18310;55.586;12.286;2024-02-28T04:04:47;101916.34;;;9.85
34807;BMP280;18310;55.586;12.286;2024-02-28T04:07:51;101922.00;;;9.88
34807;BMP280;18310;55.586;12.286;2024-02-28T04:10:56;101914.16;;;9.87
34807;BMP280;18310;55.586;12.286;2024-02-28T04:13:59;101912.22;;;9.87
34807;BMP280;18310;55.586;12.286;2024-02-28T04:17:03;101907.91;;;9.86
34807;BMP280;18310;55.586;12.286;2024-02-28T04:20:09;101896.22;;;9.86
34807;BMP280;18310;55.586;12.286;2024-02-28T04:23:12;101895.25;;;9.82
34807;BMP280;18310;55.586;12.286;2024-02-28T04:26:17;101900.19;;;9.80
34807;BMP280;18310;55.586;12.286;2024-02-28T04:29:20;101892.50;;;9.73
34807;BMP280;18310;55.586;12.286;2024-02-28T04:32:24;101903.03;;;9.75
34807;BMP280;18310;55.586;12.286;2024-02-28T04:35:27;101893.28;;;9.74
34807;BMP280;18310;55.586;12.286;2024-02-28T04:38:31;101903.38;;;9.73
34807;BMP280;18310;55.586;12.286;2024-02-28T04:41:36;101899.50;;;9.74
34807;BMP280;18310;55.586;12.286;2024-02-28T04:44:39;101899.72;;;9.78
34807;BMP280;18310;55.586;12.286;2024-02-28T04:47:43;101898.09;;;9.77
34807;BMP280;18310;55.586;12.286;2024-02-28T04:50:47;101896.69;;;9.79
34807;BMP280;18310;55.586;12.286;2024-02-28T04:53:50;101891.84;;;9.76
34807;BMP280;18310;55.586;12.286;2024-02-28T04:56:55;101891.84;;;9.76
34807;BMP280;18310;55.586;12.286;2024-02-28T04:59:58;101901.31;;;9.79
34807;BMP280;18310;55.586;12.286;2024-02-28T05:03:02;101899.06;;;9.81
34807;BMP280;18310;55.586;12.286;2024-02-28T05:06:05;101897.97;;;9.82
34807;BMP280;18310;55.586;12.286;2024-02-28T05:09:09;101896.22;;;9.86
34807;BMP280;18310;55.586;12.286;2024-02-28T05:12:14;101896.41;;;9.89
34807;BMP280;18310;55.586;12.286;2024-02-28T05:15:52;101891.91;;;9.93
34807;BMP280;18310;55.586;12.286;2024-02-28T05:18:56;101882.66;;;9.95
34807;BMP280;18310;55.586;12.286;2024-02-28T05:22:00;101887.78;;;9.96
34807;BMP280;18310;55.586;12.286;2024-02-28T05:25:05;101874.19;;;9.96
34807;BMP280;18310;55.586;12.286;2024-02-28T05:28:09;101875.28;;;9.95
34807;BMP280;18310;55.586;12.286;2024-02-28T05:31:24;101862.47;;;9.87
34807;BMP280;18310;55.586;12.286;2024-02-28T05:34:28;101885.66;;;9.93
34807;BMP280;18310;55.586;12.286;2024-02-28T05:37:31;101882.16;;;9.92
34807;BMP280;18310;55.586;12.286;2024-02-28T05:40:36;101886.97;;;9.96
34807;BMP280;18310;55.586;12.286;2024-02-28T05:43:40;101883.94;;;9.97
34807;BMP280;18310;55.586;12.286;2024-02-28T05:46:45;101889.38;;;9.97
34807;BMP280;18310;55.586;12.286;2024-02-28T05:49:48;101900.75;;;9.99
34807;BMP280;18310;55.586;12.286;2024-02-28T05:52:52;101892.59;;;9.99
34807;BMP280;18310;55.586;12.286;2024-02-28T05:55:55;101896.09;;;10.00
34807;BMP280;18310;55.586;12.286;2024-02-28T05:58:59;101899.47;;;9.97
34807;BMP280;18310;55.586;12.286;2024-02-28T06:02:04;101897.84;;;9.96
34807;BMP280;18310;55.586;12.286;2024-02-28T06:05:08;101898.81;;;10.00
34807;BMP280;18310;55.586;12.286;2024-02-28T06:08:11;101901.53;;;10.00
34807;BMP280;18310;55.586;12.286;2024-02-28T06:11:15;101911.00;;;10.02
34807;BMP280;18310;55.586;12.286;2024-02-28T06:14:19;101913.88;;;10.06
34807;BMP280;18310;55.586;12.286;2024-02-28T06:17:23;101903.00;;;10.06
34807;BMP280;18310;55.586;12.286;2024-02-28T06:20:27;101910.53;;;10.09
34807;BMP280;18310;55.586;12.286;2024-02-28T06:23:31;101917.28;;;10.11
34807;BMP280;18310;55.586;12.286;2024-02-28T06:26:34;101908.59;;;10.09
34807;BMP280;18310;55.586;12.286;2024-02-28T06:29:38;101913.56;;;10.07
34807;BMP280;18310;55.586;12.286;2024-02-28T06:32:42;101909.72;;;10.08
34807;BMP280;18310;55.586;12.286;2024-02-28T06:35:46;101914.69;;;10.06
34807;BMP280;18310;55.586;12.286;2024-02-28T06:38:49;101920.44;;;10.05
34807;BMP280;18310;55.586;12.286;2024-02-28T06:41:53;101928.09;;;10.03
34807;BMP280;18310;55.586;12.286;2024-02-28T06:44:56;101929.06;;;9.98
34807;BMP280;18310;55.586;12.286;2024-02-28T06:48:01;101931.78;;;9.98
34807;BMP280;18310;55.586;12.286;2024-02-28T06:51:05;101925.53;;;9.98
34807;BMP280;18310;55.586;12.286;2024-02-28T06:54:08;101931.00;;;9.98
34807;BMP280;18310;55.586;12.286;2024-02-28T06:57:12;101929.38;;;9.97
34807;BMP280;18310;55.586;12.286;2024-02-28T07:00:16;101939.63;;;10.00
34807;BMP280;18310;55.586;12.286;2024-02-28T07:03:22;101949.72;;;9.99
34807;BMP280;18310;55.586;12.286;2024-02-28T07:06:25;101953.56;;;9.98
34807;BMP280;18310;55.586;12.286;2024-02-28T07:09:29;101949.53;;;9.96
34807;BMP280;18310;55.586;12.286;2024-02-28T07:12:34;101933.47;;;9.85
34807;BMP280;18310;55.586;12.286;2024-02-28T07:15:38;101946.19;;;9.99
34807;BMP280;18310;55.586;12.286;2024-02-28T07:18:43;101955.00;;;10.04
34807;BMP280;18310;55.586;12.286;2024-02-28T07:21:47;101956.09;;;10.03
34807;BMP280;18310;55.586;12.286;2024-02-28T07:24:50;101957.72;;;10.04
34807;BMP280;18310;55.586;12.286;2024-02-28T07:27:56;101951.66;;;10.07
34807;BMP280;18310;55.586;12.286;2024-02-28T07:31:01;101963.81;;;10.10
34807;BMP280;18310;55.586;12.286;2024-02-28T07:34:06;101964.13;;;10.08
34807;BMP280;18310;55.586;12.286;2024-02-28T07:37:10;101963.00;;;10.09
34807;BMP280;18310;55.586;12.286;2024-02-28T07:40:14;101970.56;;;10.12
34807;BMP280;18310;55.586;12.286;2024-02-28T07:43:17;101967.53;;;10.14
34807;BMP280;18310;55.586;12.286;2024-02-28T07:46:21;101973.13;;;10.17
34807;BMP280;18310;55.586;12.286;2024-02-28T07:49:25;101982.78;;;10.23
34807;BMP280;18310;55.586;12.286;2024-02-28T07:52:30;101984.84;;;10.26
34807;BMP280;18310;55.586;12.286;2024-02-28T07:55:37;101984.06;;;10.34
34807;BMP280;18310;55.586;12.286;2024-02-28T07:58:41;101980.09;;;10.41
34807;BMP280;18310;55.586;12.286;2024-02-28T08:01:44;101977.25;;;10.46
34807;BMP280;18310;55.586;12.286;2024-02-28T08:04:49;101982.38;;;10.47
34807;BMP280;18310;55.586;12.286;2024-02-28T08:07:52;101992.47;;;10.55
34807;BMP280;18310;55.586;12.286;2024-02-28T08:10:55;101990.88;;;10.63
34807;BMP280;18310;55.586;12.286;2024-02-28T08:13:59;101986.09;;;10.68
34807;BMP280;18310;55.586;12.286;2024-02-28T08:17:02;101998.09;;;10.76
34807;BMP280;18310;55.586;12.286;2024-02-28T08:20:08;101999.59;;;10.82
34807;BMP280;18310;55.586;12.286;2024-02-28T08:23:11;101988.19;;;10.89
34807;BMP280;18310;55.586;12.286;2024-02-28T08:26:15;101980.34;;;10.96
34807;BMP280;18310;55.586;12.286;2024-02-28T08:29:18;101986.63;;;11.05
34807;BMP280;18310;55.586;12.286;2024-02-28T08:32:21;101981.94;;;11.14
34807;BMP280;18310;55.586;12.286;2024-02-28T08:35:26;101986.25;;;11.23
34807;BMP280;18310;55.586;12.286;2024-02-28T08:38:29;101991.59;;;11.29
34807;BMP280;18310;55.586;12.286;2024-02-28T08:41:33;101991.88;;;11.36
34807;BMP280;18310;55.586;12.286;2024-02-28T08:44:36;101993.28;;;11.42
34807;BMP280;18310;55.586;12.286;2024-02-28T08:47:41;101995.72;;;11.43
34807;BMP280;18310;55.586;12.286;2024-02-28T08:50:45;101997.47;;;11.48
34807;BMP280;18310;55.586;12.286;2024-02-28T08:53:48;101987.34;;;11.57
34807;BMP280;18310;55.586;12.286;2024-02-28T08:56:53;101988.78;;;11.63
34807;BMP280;18310;55.586;12.286;2024-02-28T09:00:05;101989.66;;;11.76
34807;BMP280;18310;55.586;12.286;2024-02-28T09:03:10;101972.81;;;11.82
34807;BMP280;18310;55.586;12.286;2024-02-28T09:06:15;101986.59;;;11.94
34807;BMP280;18310;55.586;12.286;2024-02-28T09:09:18;101988.00;;;12.00
34807;BMP280;18310;55.586;12.286;2024-02-28T09:12:21;101953.25;;;11.80
34807;BMP280;18310;55.586;12.286;2024-02-28T09:15:25;101991.84;;;12.08
34807;BMP280;18310;55.586;12.286;2024-02-28T09:18:28;101985.69;;;12.11
34807;BMP280;18310;55.586;12.286;2024-02-28T09:21:33;101990.03;;;12.12
34807;BMP280;18310;55.586;12.286;2024-02-28T09:24:37;101972.06;;;12.02
34807;BMP280;18310;55.586;12.286;2024-02-28T09:30:50;101996.28;;;12.21
34807;BMP280;18310;55.586;12.286;2024-02-28T09:33:54;101996.72;;;12.23
34807;BMP280;18310;55.586;12.286;2024-02-28T09:37:00;102002.50;;;12.30
34807;BMP280;18310;55.586;12.286;2024-02-28T09:40:04;101996.69;;;12.32
34807;BMP280;18310;55.586;12.286;2024-02-28T09:43:11;102003.06;;;12.36
34807;BMP280;18310;55.586;12.286;2024-02-28T09:46:19;101994.38;;;12.42
34807;BMP280;18310;55.586;12.286;2024-02-28T09:49:24;101998.50;;;12.48
34807;BMP280;18310;55.586;12.286;2024-02-28T09:52:29;102000.81;;;12.58
34807;BMP280;18310;55.586;12.286;2024-02-28T09:55:32;102008.88;;;12.64
34807;BMP280;18310;55.586;12.286;2024-02-28T09:58:35;102016.84;;;12.69
34807;BMP280;18310;55.586;12.286;2024-02-28T10:01:43;102012.97;;;12.70
34807;BMP280;18310;55.586;12.286;2024-02-28T10:04:50;102002.59;;;12.63
34807;BMP280;18310;55.586;12.286;2024-02-28T10:07:53;102016.25;;;12.63
34807;BMP280;18310;55.586;12.286;2024-02-28T10:10:58;102013.19;;;12.65
34807;BMP280;18310;55.586;12.286;2024-02-28T10:14:01;102009.44;;;12.48
34807;BMP280;18310;55.586;12.286;2024-02-28T10:17:06;102013.09;;;12.52
34807;BMP280;18310;55.586;12.286;2024-02-28T10:20:10;102012.28;;;12.52
34807;BMP280;18310;55.586;12.286;2024-02-28T10:23:14;102006.69;;;12.48
34807;BMP280;18310;55.586;12.286;2024-02-28T10:26:18;102008.84;;;12.43
34807;BMP280;18310;55.586;12.286;2024-02-28T10:29:21;102007.97;;;12.51
34807;BMP280;18310;55.586;12.286;2024-02-28T10:32:26;102009.25;;;12.53
34807;BMP280;18310;55.586;12.286;2024-02-28T10:35:32;102015.69;;;12.49
34807;BMP280;18310;55.586;12.286;2024-02-28T10:38:36;102021.88;;;12.37
34807;BMP280;18310;55.586;12.286;2024-02-28T10:41:39;102010.78;;;12.42
34807;BMP280;18310;55.586;12.286;2024-02-28T10:44:43;102016.53;;;12.41
34807;BMP280;18310;55.586;12.286;2024-02-28T10:47:50;101984.94;;;12.31
34807;BMP280;18310;55.586;12.286;2024-02-28T10:50:53;101991.72;;;12.25
34807;BMP280;18310;55.586;12.286;2024-02-28T10:54:00;102010.78;;;12.34
34807;BMP280;18310;55.586;12.286;2024-02-28T10:57:06;102016.06;;;12.39
34807;BMP280;18310;55.586;12.286;2024-02-28T11:00:12;102012.38;;;12.43
34807;BMP280;18310;55.586;12.286;2024-02-28T11:03:19;102023.56;;;12.50
34807;BMP280;18310;55.586;12.286;2024-02-28T11:06:25;102022.69;;;12.58
34807;BMP280;18310;55.586;12.286;2024-02-28T11:09:29;102030.19;;;12.70
34807;BMP280;18310;55.586;12.286;2024-02-28T11:12:34;102025.44;;;12.79
34807;BMP280;18310;55.586;12.286;2024-02-28T11:15:38;102017.38;;;12.83
34807;BMP280;18310;55.586;12.286;2024-02-28T11:18:49;102012.22;;;12.90
34807;BMP280;18310;55.586;12.286;2024-02-28T11:21:53;102010.44;;;13.06
34807;BMP280;18310;55.586;12.286;2024-02-28T11:24:57;102011.97;;;13.16
34807;BMP280;18310;55.586;12.286;2024-02-28T11:28:00;102022.31;;;13.31
34807;BMP280;18310;55.586;12.286;2024-02-28T11:31:04;102021.72;;;13.37
34807;BMP280;18310;55.586;12.286;2024-02-28T11:34:09;102021.53;;;13.42
34807;BMP280;18310;55.586;12.286;2024-02-28T11:37:12;102012.00;;;13.28
34807;BMP280;18310;55.586;12.286;2024-02-28T11:40:16;102009.59;;;13.26
34807;BMP280;18310;55.586;12.286;2024-02-28T11:43:20;102013.41;;;13.34
34807;BMP280;18310;55.586;12.286;2024-02-28T11:46:24;102010.59;;;13.42
34807;BMP280;18310;55.586;12.286;2024-02-28T11:49:28;102014.59;;;13.45
34807;BMP280;18310;55.586;12.286;2024-02-28T11:52:31;102002.28;;;13.51
34807;BMP280;18310;55.586;12.286;2024-02-28T11:55:35;102000.28;;;13.72
34807;BMP280;18310;55.586;12.286;2024-02-28T11:58:49;102013.91;;;13.93
34807;BMP280;18310;55.586;12.286;2024-02-28T12:01:52;102011.50;;;13.91
34807;BMP280;18310;55.586;12.286;2024-02-28T12:05:01;102011.47;;;13.79
34807;BMP280;18310;55.586;12.286;2024-02-28T12:08:06;102007.22;;;13.70
34807;BMP280;18310;55.586;12.286;2024-02-28T12:11:10;102008.03;;;13.70
34807;BMP280;18310;55.586;12.286;2024-02-28T12:14:14;102001.53;;;13.75
34807;BMP280;18310;55.586;12.286;2024-02-28T12:17:17;101986.91;;;13.71
34807;BMP280;18310;55.586;12.286;2024-02-28T12:20:22;101989.44;;;13.76
34807;BMP280;18310;55.586;12.286;2024-02-28T12:23:25;101998.44;;;13.76
34807;BMP280;18310;55.586;12.286;2024-02-28T12:26:28;101994.25;;;13.67
34807;BMP280;18310;55.586;12.286;2024-02-28T12:29:31;101994.78;;;13.60
34807;BMP280;18310;55.586;12.286;2024-02-28T12:32:34;101989.66;;;13.59
34807;BMP280;18310;55.586;12.286;2024-02-28T12:35:39;101980.38;;;13.51
34807;BMP280;18310;55.586;12.286;2024-02-28T12:38:43;101981.06;;;13.48
34807;BMP280;18310;55.586;12.286;2024-02-28T12:41:46;101980.94;;;13.44
34807;BMP280;18310;55.586;12.286;2024-02-28T12:44:50;101976.97;;;13.42
34807;BMP280;18310;55.586;12.286;2024-02-28T12:47:53;101978.34;;;13.36
34807;BMP280;18310;55.586;12.286;2024-02-28T12:51:00;101968.63;;;13.38
34807;BMP280;18310;55.586;12.286;2024-02-28T12:54:03;101965.56;;;13.40
34807;BMP280;18310;55.586;12.286;2024-02-28T12:57:07;101959.28;;;13.39
34807;BMP280;18310;55.586;12.286;2024-02-28T13:00:11;101972.75;;;13.44
34807;BMP280;18310;55.586;12.286;2024-02-28T13:03:14;101971.84;;;13.52
34807;BMP280;18310;55.586;12.286;2024-02-28T13:06:19;101966.16;;;13.58
34807;BMP280;18310;55.586;12.286;2024-02-28T13:09:22;101968.34;;;13.64
34807;BMP280;18310;55.586;12.286;2024-02-28T13:12:26;101956.25;;;13.65
34807;BMP280;18310;55.586;12.286;2024-02-28T13:15:29;101966.19;;;13.70
34807;BMP280;18310;55.586;12.286;2024-02-28T13:18:32;101950.56;;;13.70
34807;BMP280;18310;55.586;12.286;2024-02-28T13:21:36;101965.97;;;13.75
34807;BMP280;18310;55.586;12.286;2024-02-28T13:24:41;101960.59;;;13.66
34807;BMP280;18310;55.586;12.286;2024-02-28T13:27:45;101970.75;;;13.66
34807;BMP280;18310;55.586;12.286;2024-02-28T13:30:48;101963.81;;;13.68
34807;BMP280;18310;55.586;12.286;2024-02-28T13:33:51;101965.38;;;13.69
34807;BMP280;18310;55.586;12.286;2024-02-28T13:36:57;101961.16;;;13.60
34807;BMP280;18310;55.586;12.286;2024-02-28T13:40:00;101958.97;;;13.53
34807;BMP280;18310;55.586;12.286;2024-02-28T13:43:04;101950.97;;;13.48
34807;BMP280;18310;55.586;12.286;2024-02-28T13:46:07;101942.34;;;13.46
34807;BMP280;18310;55.586;12.286;2024-02-28T13:49:13;101948.94;;;13.45
34807;BMP280;18310;55.586;12.286;2024-02-28T13:52:18;101942.41;;;13.37
34807;BMP280;18310;55.586;12.286;2024-02-28T13:55:21;101936.84;;;13.34
34807;BMP280;18310;55.586;12.286;2024-02-28T13:58:25;101945.13;;;13.37
34807;BMP280;18310;55.586;12.286;2024-02-28T14:01:40;101944.00;;;13.38
34807;BMP280;18310;55.586;12.286;2024-02-28T14:04:43;101943.03;;;13.43
34807;BMP280;18310;55.586;12.286;2024-02-28T14:07:51;101945.41;;;13.44
34807;BMP280;18310;55.586;12.286;2024-02-28T14:10:55;101942.19;;;13.30
34807;BMP280;18310;55.586;12.286;2024-02-28T14:13:58;101942.38;;;13.25
34807;BMP280;18310;55.586;12.286;2024-02-28T14:17:01;101944.53;;;13.20
34807;BMP280;18310;55.586;12.286;2024-02-28T14:20:06;101948.66;;;13.26
34807;BMP280;18310;55.586;12.286;2024-02-28T14:23:12;101950.19;;;13.35
34807;BMP280;18310;55.586;12.286;2024-02-28T14:26:15;101946.75;;;13.38
34807;BMP280;18310;55.586;12.286;2024-02-28T14:29:18;101948.50;;;13.43
34807;BMP280;18310;55.586;12.286;2024-02-28T14:32:21;101957.63;;;13.47
34807;BMP280;18310;55.586;12.286;2024-02-28T14:35:24;101959.78;;;13.53
34807;BMP280;18310;55.586;12.286;2024-02-28T14:38:29;101965.38;;;13.57
34807;BMP280;18310;55.586;12.286;2024-02-28T14:41:33;101966.28;;;13.61
34807;BMP280;18310;55.586;12.286;2024-02-28T14:44:36;101976.66;;;13.56
34807;BMP280;18310;55.586;12.286;2024-02-28T14:47:41;101966.63;;;13.47
34807;BMP280;18310;55.586;12.286;2024-02-28T14:50:44;101966.69;;;13.39
34807;BMP280;18310;55.586;12.286;2024-02-28T14:53:49;101961.78;;;13.32
34807;BMP280;18310;55.586;12.286;2024-02-28T14:56:53;101966.31;;;13.28
34807;BMP280;18310;55.586;12.286;2024-02-28T14:59:56;101970.19;;;13.27
34807;BMP280;18310;55.586;12.286;2024-02-28T15:02:59;101979.19;;;13.28
34807;BMP280;18310;55.586;12.286;2024-02-28T15:06:02;101976.47;;;13.28
34807;BMP280;18310;55.586;12.286;2024-02-28T15:09:07;101981.38;;;13.22
34807;BMP280;18310;55.586;12.286;2024-02-28T15:13:19;101973.22;;;13.14
34807;BMP280;18310;55.586;12.286;2024-02-28T15:16:25;101983.47;;;13.04
34807;BMP280;18310;55.586;12.286;2024-02-28T15:19:28;101983.53;;;12.96
34807;BMP280;18310;55.586;12.286;2024-02-28T15:22:32;101982.81;;;12.87
34807;BMP280;18310;55.586;12.286;2024-02-28T15:25:35;101991.19;;;12.82
34807;BMP280;18310;55.586;12.286;2024-02-28T15:28:41;101993.44;;;12.80
34807;BMP280;18310;55.586;12.286;2024-02-28T15:31:44;101990.47;;;12.73
34807;BMP280;18310;55.586;12.286;2024-02-28T15:34:47;101991.00;;;12.66
34807;BMP280;18310;55.586;12.286;2024-02-28T15:37:50;101995.84;;;12.60
34807;BMP280;18310;55.586;12.286;2024-02-28T15:40:54;102005.16;;;12.59
34807;BMP280;18310;55.586;12.286;2024-02-28T15:43:59;101992.00;;;12.62
34807;BMP280;18310;55.586;12.286;2024-02-28T15:47:02;102012.03;;;12.66
34807;BMP280;18310;55.586;12.286;2024-02-28T15:50:07;101995.66;;;12.66
34807;BMP280;18310;55.586;12.286;2024-02-28T15:53:10;102010.25;;;12.70
34807;BMP280;18310;55.586;12.286;2024-02-28T15:56:15;102013.97;;;12.65
34807;BMP280;18310;55.586;12.286;2024-02-28T15:59:20;102013.66;;;12.67
34807;BMP280;18310;55.586;12.286;2024-02-28T16:02:23;102020.75;;;12.59
34807;BMP280;18310;55.586;12.286;2024-02-28T16:05:26;102014.09;;;12.48
34807;BMP280;18310;55.586;12.286;2024-02-28T16:08:30;102023.63;;;12.42
34807;BMP280;18310;55.586;12.286;2024-02-28T16:11:34;102017.19;;;12.38
34807;BMP280;18310;55.586;12.286;2024-02-28T16:14:40;102023.94;;;12.40
34807;BMP280;18310;55.586;12.286;2024-02-28T16:17:43;102026.66;;;12.40
34807;BMP280;18310;55.586;12.286;2024-02-28T16:20:46;102032.28;;;12.44
34807;BMP280;18310;55.586;12.286;2024-02-28T16:23:50;102032.13;;;12.40
34807;BMP280;18310;55.586;12.286;2024-02-28T16:26:53;102034.38;;;12.38
34807;BMP280;18310;55.586;12.286;2024-02-28T16:29:57;102032.78;;;12.37
34807;BMP280;18310;55.586;12.286;2024-02-28T16:33:01;102035.53;;;12.37
34807;BMP280;18310;55.586;12.286;2024-02-28T16:36:04;102039.84;;;12.38
34807;BMP280;18310;55.586;12.286;2024-02-28T16:39:08;102037.44;;;12.37
34807;BMP280;18310;55.586;12.286;2024-02-28T16:42:11;102032.78;;;12.37
34807;BMP280;18310;55.586;12.286;2024-02-28T16:45:16;102031.31;;;12.40
34807;BMP280;18310;55.586;12.286;2024-02-28T16:48:19;102037.28;;;12.42
34807;BMP280;18310;55.586;12.286;2024-02-28T16:51:22;102030.19;;;12.41
34807;BMP280;18310;55.586;12.286;2024-02-28T16:54:25;102032.94;;;12.41
34807;BMP280;18310;55.586;12.286;2024-02-28T16:57:29;102036.47;;;12.41
34807;BMP280;18310;55.586;12.286;2024-02-28T17:00:33;102035.66;;;12.41
34807;BMP280;18310;55.586;12.286;2024-02-28T17:03:37;102032.44;;;12.39
34807;BMP280;18310;55.586;12.286;2024-02-28T17:06:40;102039.38;;;12.36
34807;BMP280;18310;55.586;12.286;2024-02-28T17:09:44;102032.34;;;12.27
34807;BMP280;18310;55.586;12.286;2024-02-28T17:12:47;102045.16;;;12.35
34807;BMP280;18310;55.586;12.286;2024-02-28T17:15:52;102045.47;;;12.33
34807;BMP280;18310;55.586;12.286;2024-02-28T17:18:58;102043.75;;;12.29
34807;BMP280;18310;55.586;12.286;2024-02-28T17:22:46;102043.13;;;12.23